Connexion

Connexion à votre compte

Identifiant
Mot de passe
Maintenir la connexion active sur ce site
Création de compte
Profil utilisateur
(optionnel)
Annuler

Nous contacter

 Téléphone : +33 (0)4 79 54 41 81

Coordonnées détaillées et accès : cliquez ici

 
LFLB °C
    Ferienhaus Ostsee
[source: ADDS]
METAR
LFLB 231130Z AUTO 35009KT 320V020 CAVOK 23/17 Q1022 NOSIG =
TAF LFLB 231100Z 2312/2412 36008KT 9999 SCT030 BECMG 2312/2314 CAVOK BECMG 2401/2403 VRB02KT
TAF
TAF LFLB 231100Z 2312/2412 36008KT 9999 SCT030 BECMG 2312/2314 CAVOK BECMG 2401/2403 VRB02KT =
SR / SS: 04:46 / 18:32 UTC (Lever/Coucher du soleil le 2019-08-23)
JSN Boot template designed by JoomlaShine.com